sensor_id;sensor_type;location;lat;lon;timestamp;temperature;humidity
75153;HTU21D;63734;45.218;36.708;2023-04-06T00:02:16;9.21;98.28
75153;HTU21D;63734;45.218;36.708;2023-04-06T00:04:42;9.24;98.28
75153;HTU21D;63734;45.218;36.708;2023-04-06T00:07:08;9.25;98.06
75153;HTU21D;63734;45.218;36.708;2023-04-06T00:09:34;9.23;98.03
75153;HTU21D;63734;45.218;36.708;2023-04-06T00:12:00;9.19;97.91
75153;HTU21D;63734;45.218;36.708;2023-04-06T00:14:26;9.17;97.95
75153;HTU21D;63734;45.218;36.708;2023-04-06T00:16:52;9.16;97.93
75153;HTU21D;63734;45.218;36.708;2023-04-06T00:19:18;9.16;97.99
75153;HTU21D;63734;45.218;36.708;2023-04-06T00:21:44;9.18;97.97
75153;HTU21D;63734;45.218;36.708;2023-04-06T00:24:10;9.19;97.91
75153;HTU21D;63734;45.218;36.708;2023-04-06T00:26:36;9.17;97.90
75153;HTU21D;63734;45.218;36.708;2023-04-06T00:29:02;9.15;97.98
75153;HTU21D;63734;45.218;36.708;2023-04-06T00:31:28;9.12;97.97
75153;HTU21D;63734;45.218;36.708;2023-04-06T00:33:54;9.08;97.96
75153;HTU21D;63734;45.218;36.708;2023-04-06T00:36:20;9.07;97.96
75153;HTU21D;63734;45.218;36.708;2023-04-06T00:38:46;9.10;97.99
75153;HTU21D;63734;45.218;36.708;2023-04-06T00:41:12;9.11;97.90
75153;HTU21D;63734;45.218;36.708;2023-04-06T00:43:39;9.10;97.74
75153;HTU21D;63734;45.218;36.708;2023-04-06T00:46:05;9.02;97.73
75153;HTU21D;63734;45.218;36.708;2023-04-06T00:48:31;8.95;98.03
75153;HTU21D;63734;45.218;36.708;2023-04-06T00:50:59;8.89;98.10
75153;HTU21D;63734;45.218;36.708;2023-04-06T00:53:25;8.86;98.32
75153;HTU21D;63734;45.218;36.708;2023-04-06T00:55:52;8.82;98.46
75153;HTU21D;63734;45.218;36.708;2023-04-06T00:58:19;8.80;98.48
75153;HTU21D;63734;45.218;36.708;2023-04-06T01:00:51;8.79;98.64
75153;HTU21D;63734;45.218;36.708;2023-04-06T01:03:19;8.79;98.45
75153;HTU21D;63734;45.218;36.708;2023-04-06T01:05:46;8.80;98.32
75153;HTU21D;63734;45.218;36.708;2023-04-06T01:08:22;8.79;98.11
75153;HTU21D;63734;45.218;36.708;2023-04-06T01:10:52;8.82;98.13
75153;HTU21D;63734;45.218;36.708;2023-04-06T01:13:24;8.88;97.84
75153;HTU21D;63734;45.218;36.708;2023-04-06T01:15:53;8.88;97.59
75153;HTU21D;63734;45.218;36.708;2023-04-06T01:18:42;8.90;97.49
75153;HTU21D;63734;45.218;36.708;2023-04-06T01:21:22;8.88;97.35
75153;HTU21D;63734;45.218;36.708;2023-04-06T01:24:04;8.86;97.32
75153;HTU21D;63734;45.218;36.708;2023-04-06T01:26:43;8.85;97.36
75153;HTU21D;63734;45.218;36.708;2023-04-06T01:29:11;8.91;97.29
75153;HTU21D;63734;45.218;36.708;2023-04-06T01:31:38;8.89;97.13
75153;HTU21D;63734;45.218;36.708;2023-04-06T01:34:05;8.89;97.05
75153;HTU21D;63734;45.218;36.708;2023-04-06T01:36:31;8.85;97.11
75153;HTU21D;63734;45.218;36.708;2023-04-06T01:39:08;8.82;97.13
75153;HTU21D;63734;45.218;36.708;2023-04-06T01:41:36;8.82;97.16
75153;HTU21D;63734;45.218;36.708;2023-04-06T01:44:02;8.80;97.23
75153;HTU21D;63734;45.218;36.708;2023-04-06T01:46:30;8.81;97.27
75153;HTU21D;63734;45.218;36.708;2023-04-06T01:48:57;8.80;97.29
75153;HTU21D;63734;45.218;36.708;2023-04-06T01:51:34;8.79;97.41
75153;HTU21D;63734;45.218;36.708;2023-04-06T01:54:03;8.78;97.45
75153;HTU21D;63734;45.218;36.708;2023-04-06T01:56:41;8.75;97.39
75153;HTU21D;63734;45.218;36.708;2023-04-06T01:59:24;8.72;97.03
75153;HTU21D;63734;45.218;36.708;2023-04-06T02:01:51;8.74;97.13
75153;HTU21D;63734;45.218;36.708;2023-04-06T02:04:17;8.74;96.91
75153;HTU21D;63734;45.218;36.708;2023-04-06T02:06:46;8.74;96.46
75153;HTU21D;63734;45.218;36.708;2023-04-06T02:09:14;8.73;96.46
75153;HTU21D;63734;45.218;36.708;2023-04-06T02:11:40;8.75;96.40
75153;HTU21D;63734;45.218;36.708;2023-04-06T02:14:06;8.76;96.20
75153;HTU21D;63734;45.218;36.708;2023-04-06T02:16:37;8.75;96.18
75153;HTU21D;63734;45.218;36.708;2023-04-06T02:19:03;8.75;95.96
75153;HTU21D;63734;45.218;36.708;2023-04-06T02:21:29;8.74;95.97
75153;HTU21D;63734;45.218;36.708;2023-04-06T02:23:55;8.72;95.97
75153;HTU21D;63734;45.218;36.708;2023-04-06T02:26:21;8.76;95.84
75153;HTU21D;63734;45.218;36.708;2023-04-06T02:28:47;8.76;95.87
75153;HTU21D;63734;45.218;36.708;2023-04-06T02:31:13;8.76;95.83
75153;HTU21D;63734;45.218;36.708;2023-04-06T02:33:42;8.76;95.93
75153;HTU21D;63734;45.218;36.708;2023-04-06T02:36:09;8.76;95.94
75153;HTU21D;63734;45.218;36.708;2023-04-06T02:38:35;8.75;95.98
75153;HTU21D;63734;45.218;36.708;2023-04-06T02:41:02;8.75;95.55
75153;HTU21D;63734;45.218;36.708;2023-04-06T02:43:29;8.74;95.49
75153;HTU21D;63734;45.218;36.708;2023-04-06T02:46:03;8.74;95.52
75153;HTU21D;63734;45.218;36.708;2023-04-06T02:48:33;8.75;95.40
75153;HTU21D;63734;45.218;36.708;2023-04-06T02:51:01;8.73;95.43
75153;HTU21D;63734;45.218;36.708;2023-04-06T02:53:27;8.74;95.27
75153;HTU21D;63734;45.218;36.708;2023-04-06T02:55:53;8.81;95.30
75153;HTU21D;63734;45.218;36.708;2023-04-06T02:58:20;8.85;95.08
75153;HTU21D;63734;45.218;36.708;2023-04-06T03:00:51;8.82;94.90
75153;HTU21D;63734;45.218;36.708;2023-04-06T03:03:17;8.79;94.94
75153;HTU21D;63734;45.218;36.708;2023-04-06T03:05:44;8.80;95.06
75153;HTU21D;63734;45.218;36.708;2023-04-06T03:08:10;8.80;94.91
75153;HTU21D;63734;45.218;36.708;2023-04-06T03:10:44;8.85;94.72
75153;HTU21D;63734;45.218;36.708;2023-04-06T03:13:10;8.82;94.17
75153;HTU21D;63734;45.218;36.708;2023-04-06T03:15:52;8.79;94.27
75153;HTU21D;63734;45.218;36.708;2023-04-06T03:18:24;8.79;94.33
75153;HTU21D;63734;45.218;36.708;2023-04-06T03:20:51;8.79;94.28
75153;HTU21D;63734;45.218;36.708;2023-04-06T03:23:24;8.81;94.30
75153;HTU21D;63734;45.218;36.708;2023-04-06T03:25:55;8.79;94.23
75153;HTU21D;63734;45.218;36.708;2023-04-06T03:28:21;8.79;94.28
75153;HTU21D;63734;45.218;36.708;2023-04-06T03:30:59;8.78;94.40
75153;HTU21D;63734;45.218;36.708;2023-04-06T03:34:03;8.80;94.36
75153;HTU21D;63734;45.218;36.708;2023-04-06T03:36:34;8.79;94.46
75153;HTU21D;63734;45.218;36.708;2023-04-06T03:39:03;8.78;94.49
75153;HTU21D;63734;45.218;36.708;2023-04-06T03:41:32;8.75;94.58
75153;HTU21D;63734;45.218;36.708;2023-04-06T03:44:08;8.77;94.60
75153;HTU21D;63734;45.218;36.708;2023-04-06T03:46:34;8.76;94.58
75153;HTU21D;63734;45.218;36.708;2023-04-06T03:49:00;8.76;94.59
75153;HTU21D;63734;45.218;36.708;2023-04-06T03:51:27;8.79;94.62
75153;HTU21D;63734;45.218;36.708;2023-04-06T03:53:53;8.78;94.49
75153;HTU21D;63734;45.218;36.708;2023-04-06T03:56:19;8.79;94.46
75153;HTU21D;63734;45.218;36.708;2023-04-06T03:58:46;8.78;94.26
75153;HTU21D;63734;45.218;36.708;2023-04-06T04:01:16;8.78;94.23
75153;HTU21D;63734;45.218;36.708;2023-04-06T04:03:43;8.81;94.14
75153;HTU21D;63734;45.218;36.708;2023-04-06T04:06:09;8.82;93.99
75153;HTU21D;63734;45.218;36.708;2023-04-06T04:08:35;8.85;93.98
75153;HTU21D;63734;45.218;36.708;2023-04-06T04:11:01;8.87;93.91
75153;HTU21D;63734;45.218;36.708;2023-04-06T04:13:28;8.88;93.95
75153;HTU21D;63734;45.218;36.708;2023-04-06T04:15:54;8.94;93.85
75153;HTU21D;63734;45.218;36.708;2023-04-06T04:18:20;8.95;93.81
75153;HTU21D;63734;45.218;36.708;2023-04-06T04:20:46;8.97;93.75
75153;HTU21D;63734;45.218;36.708;2023-04-06T04:23:12;9.03;93.80
75153;HTU21D;63734;45.218;36.708;2023-04-06T04:25:38;9.10;93.71
75153;HTU21D;63734;45.218;36.708;2023-04-06T04:28:05;9.05;93.68
75153;HTU21D;63734;45.218;36.708;2023-04-06T04:30:31;9.04;93.77
75153;HTU21D;63734;45.218;36.708;2023-04-06T04:32:57;9.15;93.99
75153;HTU21D;63734;45.218;36.708;2023-04-06T04:35:23;9.23;93.50
75153;HTU21D;63734;45.218;36.708;2023-04-06T04:37:50;9.29;93.46
75153;HTU21D;63734;45.218;36.708;2023-04-06T04:40:17;9.21;93.41
75153;HTU21D;63734;45.218;36.708;2023-04-06T04:42:53;9.12;93.62
75153;HTU21D;63734;45.218;36.708;2023-04-06T04:45:30;9.07;93.70
75153;HTU21D;63734;45.218;36.708;2023-04-06T04:47:59;9.04;93.81
75153;HTU21D;63734;45.218;36.708;2023-04-06T04:50:31;9.09;93.86
75153;HTU21D;63734;45.218;36.708;2023-04-06T04:52:58;9.06;93.78
75153;HTU21D;63734;45.218;36.708;2023-04-06T04:55:25;9.04;93.42
75153;HTU21D;63734;45.218;36.708;2023-04-06T04:57:54;9.08;93.53
75153;HTU21D;63734;45.218;36.708;2023-04-06T05:00:27;9.15;92.82
75153;HTU21D;63734;45.218;36.708;2023-04-06T05:02:56;9.18;92.53
75153;HTU21D;63734;45.218;36.708;2023-04-06T05:05:28;9.17;92.46
75153;HTU21D;63734;45.218;36.708;2023-04-06T05:07:54;9.21;92.43
75153;HTU21D;63734;45.218;36.708;2023-04-06T05:10:39;9.30;92.22
75153;HTU21D;63734;45.218;36.708;2023-04-06T05:13:05;9.35;91.89
75153;HTU21D;63734;45.218;36.708;2023-04-06T05:15:31;9.41;91.85
75153;HTU21D;63734;45.218;36.708;2023-04-06T05:18:07;9.46;91.79
75153;HTU21D;63734;45.218;36.708;2023-04-06T05:20:35;9.48;91.40
75153;HTU21D;63734;45.218;36.708;2023-04-06T05:23:02;9.52;91.59
75153;HTU21D;63734;45.218;36.708;2023-04-06T05:25:29;9.54;91.34
75153;HTU21D;63734;45.218;36.708;2023-04-06T05:28:01;9.55;91.27
75153;HTU21D;63734;45.218;36.708;2023-04-06T05:30:33;9.53;91.11
75153;HTU21D;63734;45.218;36.708;2023-04-06T05:33:02;9.50;90.60
75153;HTU21D;63734;45.218;36.708;2023-04-06T05:35:37;9.48;90.69
75153;HTU21D;63734;45.218;36.708;2023-04-06T05:38:09;9.46;90.45
75153;HTU21D;63734;45.218;36.708;2023-04-06T05:40:37;9.50;90.69
75153;HTU21D;63734;45.218;36.708;2023-04-06T05:43:10;9.63;90.62
75153;HTU21D;63734;45.218;36.708;2023-04-06T05:45:40;9.65;90.22
75153;HTU21D;63734;45.218;36.708;2023-04-06T05:48:06;9.71;90.38
75153;HTU21D;63734;45.218;36.708;2023-04-06T05:50:32;9.76;90.38
75153;HTU21D;63734;45.218;36.708;2023-04-06T05:52:59;9.79;90.33
75153;HTU21D;63734;45.218;36.708;2023-04-06T05:55:31;9.79;90.12
75153;HTU21D;63734;45.218;36.708;2023-04-06T05:58:19;9.82;90.09
75153;HTU21D;63734;45.218;36.708;2023-04-06T06:00:46;9.92;90.18
75153;HTU21D;63734;45.218;36.708;2023-04-06T06:03:14;10.06;90.16
75153;HTU21D;63734;45.218;36.708;2023-04-06T06:05:45;10.05;89.67
75153;HTU21D;63734;45.218;36.708;2023-04-06T06:08:18;9.83;89.70
75153;HTU21D;63734;45.218;36.708;2023-04-06T06:10:46;9.67;90.24
75153;HTU21D;63734;45.218;36.708;2023-04-06T06:13:13;9.57;90.65
75153;HTU21D;63734;45.218;36.708;2023-04-06T06:15:39;9.56;90.82
75153;HTU21D;63734;45.218;36.708;2023-04-06T06:18:06;9.64;90.95
75153;HTU21D;63734;45.218;36.708;2023-04-06T06:20:32;9.64;90.93
75153;HTU21D;63734;45.218;36.708;2023-04-06T06:23:02;9.63;90.98
75153;HTU21D;63734;45.218;36.708;2023-04-06T06:25:37;9.68;91.15
75153;HTU21D;63734;45.218;36.708;2023-04-06T06:28:03;9.68;91.14
75153;HTU21D;63734;45.218;36.708;2023-04-06T06:30:34;9.67;91.14
75153;HTU21D;63734;45.218;36.708;2023-04-06T06:33:00;9.70;91.08
75153;HTU21D;63734;45.218;36.708;2023-04-06T06:35:27;9.71;91.00
75153;HTU21D;63734;45.218;36.708;2023-04-06T06:37:54;9.77;91.10
75153;HTU21D;63734;45.218;36.708;2023-04-06T06:40:24;9.81;91.02
75153;HTU21D;63734;45.218;36.708;2023-04-06T06:42:53;9.86;91.08
75153;HTU21D;63734;45.218;36.708;2023-04-06T06:45:37;9.94;90.96
75153;HTU21D;63734;45.218;36.708;2023-04-06T06:48:04;9.97;90.72
75153;HTU21D;63734;45.218;36.708;2023-04-06T06:50:30;9.95;90.78
75153;HTU21D;63734;45.218;36.708;2023-04-06T06:52:56;9.96;90.82
75153;HTU21D;63734;45.218;36.708;2023-04-06T06:55:22;9.94;90.83
75153;HTU21D;63734;45.218;36.708;2023-04-06T06:57:48;10.04;90.81
75153;HTU21D;63734;45.218;36.708;2023-04-06T07:00:15;10.08;90.71
75153;HTU21D;63734;45.218;36.708;2023-04-06T07:02:43;10.07;90.41
75153;HTU21D;63734;45.218;36.708;2023-04-06T07:05:09;9.96;89.90
75153;HTU21D;63734;45.218;36.708;2023-04-06T07:07:35;9.85;90.36
75153;HTU21D;63734;45.218;36.708;2023-04-06T07:10:01;9.80;90.52
75153;HTU21D;63734;45.218;36.708;2023-04-06T07:12:27;9.82;90.70
75153;HTU21D;63734;45.218;36.708;2023-04-06T07:14:53;9.95;90.68
75153;HTU21D;63734;45.218;36.708;2023-04-06T07:17:20;10.13;90.46
75153;HTU21D;63734;45.218;36.708;2023-04-06T07:19:46;10.26;90.12
75153;HTU21D;63734;45.218;36.708;2023-04-06T07:22:12;10.37;89.70
75153;HTU21D;63734;45.218;36.708;2023-04-06T07:24:38;10.43;89.67
75153;HTU21D;63734;45.218;36.708;2023-04-06T07:27:04;10.43;89.75
75153;HTU21D;63734;45.218;36.708;2023-04-06T07:29:30;10.41;89.50
75153;HTU21D;63734;45.218;36.708;2023-04-06T07:31:56;10.36;89.53
75153;HTU21D;63734;45.218;36.708;2023-04-06T07:34:23;10.40;89.61
75153;HTU21D;63734;45.218;36.708;2023-04-06T07:36:49;10.43;89.51
75153;HTU21D;63734;45.218;36.708;2023-04-06T07:39:15;10.42;89.45
75153;HTU21D;63734;45.218;36.708;2023-04-06T07:41:41;10.46;89.44
75153;HTU21D;63734;45.218;36.708;2023-04-06T07:44:07;10.48;89.51
75153;HTU21D;63734;45.218;36.708;2023-04-06T07:46:34;10.52;89.37
75153;HTU21D;63734;45.218;36.708;2023-04-06T07:49:02;10.49;89.36
75153;HTU21D;63734;45.218;36.708;2023-04-06T07:51:30;10.52;89.41
75153;HTU21D;63734;45.218;36.708;2023-04-06T07:53:57;10.55;89.50
75153;HTU21D;63734;45.218;36.708;2023-04-06T07:56:23;10.59;89.37
75153;HTU21D;63734;45.218;36.708;2023-04-06T07:58:49;10.50;88.82
75153;HTU21D;63734;45.218;36.708;2023-04-06T08:01:15;10.48;89.40
75153;HTU21D;63734;45.218;36.708;2023-04-06T08:03:41;10.52;89.16
75153;HTU21D;63734;45.218;36.708;2023-04-06T08:06:07;10.50;89.18
75153;HTU21D;63734;45.218;36.708;2023-04-06T08:08:32;10.52;89.21
75153;HTU21D;63734;45.218;36.708;2023-04-06T08:10:58;10.56;89.05
75153;HTU21D;63734;45.218;36.708;2023-04-06T08:13:24;10.54;88.69
75153;HTU21D;63734;45.218;36.708;2023-04-06T08:15:51;10.46;88.56
75153;HTU21D;63734;45.218;36.708;2023-04-06T08:18:17;10.44;88.60
75153;HTU21D;63734;45.218;36.708;2023-04-06T08:20:43;10.44;88.85
75153;HTU21D;63734;45.218;36.708;2023-04-06T08:23:08;10.52;88.85
75153;HTU21D;63734;45.218;36.708;2023-04-06T08:25:35;10.62;88.69
75153;HTU21D;63734;45.218;36.708;2023-04-06T08:28:02;10.63;88.46
75153;HTU21D;63734;45.218;36.708;2023-04-06T08:30:29;10.58;88.32
75153;HTU21D;63734;45.218;36.708;2023-04-06T08:32:55;10.56;88.31
75153;HTU21D;63734;45.218;36.708;2023-04-06T08:35:21;10.88;88.19
75153;HTU21D;63734;45.218;36.708;2023-04-06T08:37:47;11.13;87.69
75153;HTU21D;63734;45.218;36.708;2023-04-06T08:40:13;11.25;87.16
75153;HTU21D;63734;45.218;36.708;2023-04-06T08:42:40;11.17;87.19
75153;HTU21D;63734;45.218;36.708;2023-04-06T08:45:10;11.10;87.35
75153;HTU21D;63734;45.218;36.708;2023-04-06T08:47:36;11.03;87.23
75153;HTU21D;63734;45.218;36.708;2023-04-06T08:50:06;11.02;87.26
75153;HTU21D;63734;45.218;36.708;2023-04-06T08:52:33;10.92;86.77
75153;HTU21D;63734;45.218;36.708;2023-04-06T08:55:00;10.88;87.11
75153;HTU21D;63734;45.218;36.708;2023-04-06T08:57:26;10.89;87.12
75153;HTU21D;63734;45.218;36.708;2023-04-06T08:59:53;10.96;86.89
75153;HTU21D;63734;45.218;36.708;2023-04-06T09:02:20;10.93;86.54
75153;HTU21D;63734;45.218;36.708;2023-04-06T09:04:48;10.87;86.54
75153;HTU21D;63734;45.218;36.708;2023-04-06T09:07:15;10.89;86.35
75153;HTU21D;63734;45.218;36.708;2023-04-06T09:09:42;10.88;86.11
75153;HTU21D;63734;45.218;36.708;2023-04-06T09:12:30;10.88;85.78
75153;HTU21D;63734;45.218;36.708;2023-04-06T09:14:57;10.92;85.75
75153;HTU21D;63734;45.218;36.708;2023-04-06T09:17:25;10.96;85.27
75153;HTU21D;63734;45.218;36.708;2023-04-06T09:19:51;11.02;85.32
75153;HTU21D;63734;45.218;36.708;2023-04-06T09:22:18;11.11;85.02
75153;HTU21D;63734;45.218;36.708;2023-04-06T09:27:11;11.30;84.49
75153;HTU21D;63734;45.218;36.708;2023-04-06T09:29:37;11.57;84.34
75153;HTU21D;63734;45.218;36.708;2023-04-06T09:32:05;12.11;83.42
75153;HTU21D;63734;45.218;36.708;2023-04-06T09:34:32;12.57;82.53
75153;HTU21D;63734;45.218;36.708;2023-04-06T09:36:58;12.59;81.78
75153;HTU21D;63734;45.218;36.708;2023-04-06T09:39:24;12.36;81.53
75153;HTU21D;63734;45.218;36.708;2023-04-06T09:41:52;12.23;81.94
75153;HTU21D;63734;45.218;36.708;2023-04-06T09:44:18;12.03;82.24
75153;HTU21D;63734;45.218;36.708;2023-04-06T09:46:46;12.00;82.59
75153;HTU21D;63734;45.218;36.708;2023-04-06T09:49:13;11.93;82.46
75153;HTU21D;63734;45.218;36.708;2023-04-06T09:54:09;12.05;82.44
75153;HTU21D;63734;45.218;36.708;2023-04-06T09:56:47;12.21;82.03
75153;HTU21D;63734;45.218;36.708;2023-04-06T09:59:18;12.41;81.23
75153;HTU21D;63734;45.218;36.708;2023-04-06T10:01:48;12.67;80.65
75153;HTU21D;63734;45.218;36.708;2023-04-06T10:04:29;12.84;80.27
75153;HTU21D;63734;45.218;36.708;2023-04-06T10:06:59;13.21;80.06
75153;HTU21D;63734;45.218;36.708;2023-04-06T10:09:28;13.53;78.63
75153;HTU21D;63734;45.218;36.708;2023-04-06T10:12:03;13.48;78.45
75153;HTU21D;63734;45.218;36.708;2023-04-06T10:14:31;13.36;78.68
75153;HTU21D;63734;45.218;36.708;2023-04-06T10:16:57;13.21;78.49
75153;HTU21D;63734;45.218;36.708;2023-04-06T10:19:28;13.09;78.51
75153;HTU21D;63734;45.218;36.708;2023-04-06T10:21:59;12.86;77.71
75153;HTU21D;63734;45.218;36.708;2023-04-06T10:24:30;12.57;77.65
75153;HTU21D;63734;45.218;36.708;2023-04-06T10:27:06;12.20;78.75
75153;HTU21D;63734;45.218;36.708;2023-04-06T10:29:46;11.86;80.55
75153;HTU21D;63734;45.218;36.708;2023-04-06T10:32:14;11.49;81.77
75153;HTU21D;63734;45.218;36.708;2023-04-06T10:34:40;11.08;82.88
75153;HTU21D;63734;45.218;36.708;2023-04-06T10:37:16;10.73;84.10
75153;HTU21D;63734;45.218;36.708;2023-04-06T10:39:53;10.39;85.29
75153;HTU21D;63734;45.218;36.708;2023-04-06T10:42:35;10.25;86.90
75153;HTU21D;63734;45.218;36.708;2023-04-06T10:45:07;10.60;86.32
75153;HTU21D;63734;45.218;36.708;2023-04-06T10:47:44;10.37;85.46
75153;HTU21D;63734;45.218;36.708;2023-04-06T10:50:16;10.14;86.09
75153;HTU21D;63734;45.218;36.708;2023-04-06T10:52:46;10.14;86.85
75153;HTU21D;63734;45.218;36.708;2023-04-06T10:55:17;10.15;87.23
75153;HTU21D;63734;45.218;36.708;2023-04-06T10:57:46;10.07;87.35
75153;HTU21D;63734;45.218;36.708;2023-04-06T11:00:12;10.00;87.61
75153;HTU21D;63734;45.218;36.708;2023-04-06T11:02:38;9.97;87.42
75153;HTU21D;63734;45.218;36.708;2023-04-06T11:05:05;9.97;87.80
75153;HTU21D;63734;45.218;36.708;2023-04-06T11:07:31;9.94;87.83
75153;HTU21D;63734;45.218;36.708;2023-04-06T11:09:57;9.94;87.91
75153;HTU21D;63734;45.218;36.708;2023-04-06T11:12:25;9.96;87.95
75153;HTU21D;63734;45.218;36.708;2023-04-06T11:15:02;10.01;87.55
75153;HTU21D;63734;45.218;36.708;2023-04-06T11:17:36;10.00;87.40
75153;HTU21D;63734;45.218;36.708;2023-04-06T11:20:03;9.93;86.96
75153;HTU21D;63734;45.218;36.708;2023-04-06T11:22:30;9.72;87.15
75153;HTU21D;63734;45.218;36.708;2023-04-06T11:25:06;9.64;87.83
75153;HTU21D;63734;45.218;36.708;2023-04-06T11:27:33;9.56;87.81
75153;HTU21D;63734;45.218;36.708;2023-04-06T11:30:01;9.50;88.11
75153;HTU21D;63734;45.218;36.708;2023-04-06T11:32:27;9.50;88.18
75153;HTU21D;63734;45.218;36.708;2023-04-06T11:34:53;9.48;87.99
75153;HTU21D;63734;45.218;36.708;2023-04-06T11:37:19;9.60;88.03
75153;HTU21D;63734;45.218;36.708;2023-04-06T11:39:54;9.67;87.25
75153;HTU21D;63734;45.218;36.708;2023-04-06T11:42:30;9.67;87.41
75153;HTU21D;63734;45.218;36.708;2023-04-06T11:44:57;9.57;86.93
75153;HTU21D;63734;45.218;36.708;2023-04-06T11:47:33;9.54;87.15
75153;HTU21D;63734;45.218;36.708;2023-04-06T11:52:37;9.63;86.95
75153;HTU21D;63734;45.218;36.708;2023-04-06T11:55:14;9.64;86.70
75153;HTU21D;63734;45.218;36.708;2023-04-06T11:57:41;9.63;86.32
75153;HTU21D;63734;45.218;36.708;2023-04-06T12:00:09;9.52;85.80
75153;HTU21D;63734;45.218;36.708;2023-04-06T12:02:39;9.50;86.25
75153;HTU21D;63734;45.218;36.708;2023-04-06T12:05:06;9.48;85.86
75153;HTU21D;63734;45.218;36.708;2023-04-06T12:07:32;9.44;85.91
75153;HTU21D;63734;45.218;36.708;2023-04-06T12:10:00;9.45;85.86
75153;HTU21D;63734;45.218;36.708;2023-04-06T12:12:26;9.44;85.84
75153;HTU21D;63734;45.218;36.708;2023-04-06T12:14:52;9.45;85.77
75153;HTU21D;63734;45.218;36.708;2023-04-06T12:17:19;9.44;85.64
75153;HTU21D;63734;45.218;36.708;2023-04-06T12:19:46;9.40;85.49
75153;HTU21D;63734;45.218;36.708;2023-04-06T12:22:12;9.47;85.76
75153;HTU21D;63734;45.218;36.708;2023-04-06T12:24:38;9.55;85.75
75153;HTU21D;63734;45.218;36.708;2023-04-06T12:27:04;9.62;85.62
75153;HTU21D;63734;45.218;36.708;2023-04-06T12:29:30;9.66;85.23
75153;HTU21D;63734;45.218;36.708;2023-04-06T12:31:56;9.70;85.22
75153;HTU21D;63734;45.218;36.708;2023-04-06T12:34:22;9.72;84.79
75153;HTU21D;63734;45.218;36.708;2023-04-06T12:36:48;9.70;84.87
75153;HTU21D;63734;45.218;36.708;2023-04-06T12:39:14;9.72;84.60
75153;HTU21D;63734;45.218;36.708;2023-04-06T12:41:41;9.76;84.58
75153;HTU21D;63734;45.218;36.708;2023-04-06T12:44:07;9.77;84.38
75153;HTU21D;63734;45.218;36.708;2023-04-06T12:46:33;9.81;84.48
75153;HTU21D;63734;45.218;36.708;2023-04-06T12:48:59;9.88;84.33
75153;HTU21D;63734;45.218;36.708;2023-04-06T12:51:27;9.92;84.26
75153;HTU21D;63734;45.218;36.708;2023-04-06T12:53:54;10.00;84.10
75153;HTU21D;63734;45.218;36.708;2023-04-06T12:56:20;10.07;83.66
75153;HTU21D;63734;45.218;36.708;2023-04-06T12:58:51;10.07;83.82
75153;HTU21D;63734;45.218;36.708;2023-04-06T13:01:17;10.10;83.69
75153;HTU21D;63734;45.218;36.708;2023-04-06T13:03:44;10.16;83.09
75153;HTU21D;63734;45.218;36.708;2023-04-06T13:06:10;10.12;82.97
75153;HTU21D;63734;45.218;36.708;2023-04-06T13:08:37;10.16;83.16
75153;HTU21D;63734;45.218;36.708;2023-04-06T13:11:04;10.10;83.04
75153;HTU21D;63734;45.218;36.708;2023-04-06T13:13:31;10.13;83.32
75153;HTU21D;63734;45.218;36.708;2023-04-06T13:16:02;10.21;83.19
75153;HTU21D;63734;45.218;36.708;2023-04-06T13:18:30;10.27;83.09
75153;HTU21D;63734;45.218;36.708;2023-04-06T13:20:57;10.35;82.79
75153;HTU21D;63734;45.218;36.708;2023-04-06T13:23:23;10.38;82.64
75153;HTU21D;63734;45.218;36.708;2023-04-06T13:26:06;10.40;82.67
75153;HTU21D;63734;45.218;36.708;2023-04-06T13:28:33;10.43;82.62
75153;HTU21D;63734;45.218;36.708;2023-04-06T13:31:00;10.37;82.58
75153;HTU21D;63734;45.218;36.708;2023-04-06T13:33:27;10.36;82.60
75153;HTU21D;63734;45.218;36.708;2023-04-06T13:35:53;10.36;82.49
75153;HTU21D;63734;45.218;36.708;2023-04-06T13:38:20;10.29;82.13
75153;HTU21D;63734;45.218;36.708;2023-04-06T13:40:46;10.25;82.55
75153;HTU21D;63734;45.218;36.708;2023-04-06T13:43:12;10.19;82.65
75153;HTU21D;63734;45.218;36.708;2023-04-06T13:45:38;10.22;82.67
75153;HTU21D;63734;45.218;36.708;2023-04-06T13:48:05;10.24;82.46
75153;HTU21D;63734;45.218;36.708;2023-04-06T13:50:31;10.15;82.47
75153;HTU21D;63734;45.218;36.708;2023-04-06T13:52:57;10.08;82.17
75153;HTU21D;63734;45.218;36.708;2023-04-06T13:55:24;10.05;82.33
75153;HTU21D;63734;45.218;36.708;2023-04-06T13:57:50;10.05;82.53
75153;HTU21D;63734;45.218;36.708;2023-04-06T14:00:17;10.14;82.56
75153;HTU21D;63734;45.218;36.708;2023-04-06T14:02:43;10.29;82.45
75153;HTU21D;63734;45.218;36.708;2023-04-06T14:05:09;10.45;82.10
75153;HTU21D;63734;45.218;36.708;2023-04-06T14:07:36;10.51;81.59
75153;HTU21D;63734;45.218;36.708;2023-04-06T14:10:02;10.41;81.60
75153;HTU21D;63734;45.218;36.708;2023-04-06T14:12:28;10.42;80.78
75153;HTU21D;63734;45.218;36.708;2023-04-06T14:14:55;10.39;80.87
75153;HTU21D;63734;45.218;36.708;2023-04-06T14:17:20;10.33;81.02
75153;HTU21D;63734;45.218;36.708;2023-04-06T14:19:47;10.34;80.76
75153;HTU21D;63734;45.218;36.708;2023-04-06T14:22:14;10.34;80.65
75153;HTU21D;63734;45.218;36.708;2023-04-06T14:24:40;10.27;80.78
75153;HTU21D;63734;45.218;36.708;2023-04-06T14:27:06;10.25;80.62
75153;HTU21D;63734;45.218;36.708;2023-04-06T14:29:32;10.18;80.75
75153;HTU21D;63734;45.218;36.708;2023-04-06T14:31:58;10.18;80.84
75153;HTU21D;63734;45.218;36.708;2023-04-06T14:34:27;10.14;80.72
75153;HTU21D;63734;45.218;36.708;2023-04-06T14:36:53;10.14;80.81
75153;HTU21D;63734;45.218;36.708;2023-04-06T14:39:19;10.19;80.52
75153;HTU21D;63734;45.218;36.708;2023-04-06T14:41:45;10.14;80.55
75153;HTU21D;63734;45.218;36.708;2023-04-06T14:44:16;10.09;80.85
75153;HTU21D;63734;45.218;36.708;2023-04-06T14:46:42;10.08;80.56
75153;HTU21D;63734;45.218;36.708;2023-04-06T14:49:08;9.99;80.76
75153;HTU21D;63734;45.218;36.708;2023-04-06T14:51:34;9.96;80.95
75153;HTU21D;63734;45.218;36.708;2023-04-06T14:54:01;9.91;81.06
75153;HTU21D;63734;45.218;36.708;2023-04-06T14:56:28;9.84;81.19
75153;HTU21D;63734;45.218;36.708;2023-04-06T14:58:59;9.75;81.27
75153;HTU21D;63734;45.218;36.708;2023-04-06T15:01:28;9.68;81.40
75153;HTU21D;63734;45.218;36.708;2023-04-06T15:03:55;9.61;81.52
75153;HTU21D;63734;45.218;36.708;2023-04-06T15:06:21;9.56;81.65
75153;HTU21D;63734;45.218;36.708;2023-04-06T15:08:48;9.50;81.74
75153;HTU21D;63734;45.218;36.708;2023-04-06T15:11:14;9.44;81.87
75153;HTU21D;63734;45.218;36.708;2023-04-06T15:13:40;9.37;81.97
75153;HTU21D;63734;45.218;36.708;2023-04-06T15:16:07;9.31;82.12
75153;HTU21D;63734;45.218;36.708;2023-04-06T15:18:34;9.27;82.26
75153;HTU21D;63734;45.218;36.708;2023-04-06T15:21:00;9.25;82.36
75153;HTU21D;63734;45.218;36.708;2023-04-06T15:23:27;9.22;82.34
75153;HTU21D;63734;45.218;36.708;2023-04-06T15:25:56;9.23;82.42